الصفحة الرئيسية
METAR-TAF:

METAR-TAF

مطار :

Neiva, كولومبيا

دائرة عرض: 02-58N, خط طول: 075-18W, ارتفاع: 439 متر

مراقبة الطقس الحالي

تاريخ ووقت الإصدار 2ساعات و 9 دقيقة قبل الساعة 03:00UTC
ريح 3 عقدة من الشمال
درجة الحرارة 26°درجة مئوية
الرطوبة 89%
ضغط 1012 hPa
الرؤية 10 كم أو أكثر
غيوم قليلة على ارتفاع 6000 قدم
غيوم متفرقة على ارتفاع 10000 قدم

METAR: SKNV 250300Z 35003KT 9999 FEW060 SCT100 26/24 Q1012

زمن: 00:09 (05:09 UTC)


TAF: مفقودة

أرصاد الطقس والتوقعات من أكثر من 4000 مطار (تقارير الطقس للمطار METAR والتنبؤ بالطقس بالمطارTAF).

المحطات المتاحة هي النقط الصفراء والحمراء على الخريطة.

حرك المؤشر فوق النقطة لمعرفة اسم المحطة.

ثم انقر لمعرفة أرصاد وتوقعات الطقس.

لتغيير الخارطة: اضغط على الأزرار الخضراء مع رمز الصليب الأسود للتكبير. على الزر الأخضر مع شرطة للتصغير، أو على الأسهم الخضراء للخرائط المجاورة.


METAR-TAF: